createdAt,value
2022-12-12T11:03:09.144Z,0
2022-12-12T11:03:52.987Z,0.02
2022-12-12T11:05:54.551Z,-0.11
2022-12-12T11:07:56.548Z,-0.1
2022-12-12T11:10:01.592Z,-0.12
2022-12-12T11:11:59.137Z,0.01
2022-12-12T11:14:00.805Z,0
2022-12-12T11:16:02.879Z,0.11
2022-12-12T11:18:06.267Z,0.04
2022-12-12T11:20:05.837Z,0.05
2022-12-12T11:22:06.959Z,-0.1
2022-12-12T11:24:08.180Z,-0.29
2022-12-12T11:26:09.749Z,-0.28
2022-12-12T11:28:11.750Z,-0.1
2022-12-12T11:30:13.095Z,-0.23
2022-12-12T11:32:14.437Z,-0.01
2022-12-12T11:34:15.919Z,0.17
2022-12-12T11:36:17.376Z,0.45
2022-12-12T11:38:18.759Z,0.39
2022-12-12T11:40:20.361Z,0.37
2022-12-12T11:42:22.327Z,0.33
2022-12-12T11:44:24.053Z,0.06
2022-12-12T11:46:25.868Z,0
2022-12-12T11:48:27.022Z,-0.05
2022-12-12T11:50:28.816Z,0.08
2022-12-12T11:52:30.759Z,0.09
2022-12-12T11:54:32.134Z,-0.01
2022-12-12T11:56:33.754Z,-0.01
2022-12-12T11:58:35.189Z,0.02
2022-12-12T12:00:36.505Z,-0.02
2022-12-12T12:02:37.631Z,-0.11
2022-12-12T12:04:38.784Z,-0.03
2022-12-12T12:06:40.548Z,-0.19
2022-12-12T12:08:42.444Z,-0.21
2022-12-12T12:10:43.695Z,-0.44
2022-12-12T12:12:45.155Z,-0.35
2022-12-12T12:14:46.606Z,-0.29
2022-12-12T12:16:47.790Z,-0.13
2022-12-12T12:18:49.473Z,-0.38
2022-12-12T12:20:51.406Z,-0.35
2022-12-12T12:22:52.471Z,-0.4
2022-12-12T12:24:53.690Z,-0.6
2022-12-12T12:26:55.221Z,-0.73
2022-12-12T12:28:57.134Z,-0.86
2022-12-12T12:30:58.915Z,-0.83
2022-12-12T12:32:59.979Z,-0.83
2022-12-12T12:35:01.840Z,-0.81
2022-12-12T12:37:03.277Z,-0.87
2022-12-12T12:39:05.260Z,-0.86
2022-12-12T12:41:06.841Z,-0.87
2022-12-12T12:43:08.391Z,-0.97
2022-12-12T12:45:10.144Z,-0.96
2022-12-12T12:47:11.497Z,-1.01
2022-12-12T12:49:12.782Z,-1
2022-12-12T12:51:14.709Z,-1.12
2022-12-12T12:53:16.327Z,-1.07
2022-12-12T12:55:27.523Z,-0.97
2022-12-12T12:57:18.898Z,-0.94
2022-12-12T12:59:20.184Z,-0.89
2022-12-12T13:01:22.020Z,-0.84
2022-12-12T13:03:23.110Z,-0.93
2022-12-12T13:05:24.653Z,-0.97
2022-12-12T13:07:26.035Z,-0.94
2022-12-12T13:09:27.354Z,-0.95
2022-12-12T13:11:28.384Z,-0.92
2022-12-12T13:13:29.537Z,-0.95
2022-12-12T13:15:31.353Z,-0.92
2022-12-12T13:17:32.416Z,-0.9
2022-12-12T13:19:34.200Z,-0.95
2022-12-12T13:21:36.000Z,-0.95
2022-12-12T13:23:37.450Z,-0.97
2022-12-12T13:25:39.209Z,-0.97
2022-12-12T13:27:40.633Z,-0.97
2022-12-12T13:29:42.445Z,-1.05
2022-12-12T13:31:44.431Z,-1.03
2022-12-12T13:33:45.713Z,-1.02
2022-12-12T13:35:47.716Z,-1.11
2022-12-12T13:38:06.702Z,-1.07
2022-12-12T13:39:51.623Z,-1.04
2022-12-12T13:41:53.287Z,-1.06
2022-12-12T13:43:54.554Z,-1.05
2022-12-12T13:45:56.488Z,-1.09
2022-12-12T13:47:57.547Z,-1.11
2022-12-12T13:49:59.230Z,-1.16
2022-12-12T13:54:06.063Z,-1.2
2022-12-12T13:56:04.286Z,-1.2
2022-12-12T13:58:05.569Z,-1.2
2022-12-12T14:00:07.483Z,-1.19
2022-12-12T14:02:09.010Z,-1.17
2022-12-12T14:04:10.210Z,-1.16
2022-12-12T14:06:12.030Z,-1.13
2022-12-12T14:08:13.748Z,-1.17
2022-12-12T14:10:24.461Z,-1.16
2022-12-12T14:12:17.000Z,-1.21
2022-12-12T14:14:18.392Z,-1.18
2022-12-12T14:16:20.059Z,-1.24
2022-12-12T14:18:23.742Z,-1.18
2022-12-12T14:20:23.627Z,-1.19
2022-12-12T14:22:25.167Z,-1.16
2022-12-12T14:24:27.021Z,-1.17
2022-12-12T14:26:28.368Z,-1.2
2022-12-12T14:28:29.899Z,-1.24
2022-12-12T14:30:31.268Z,-1.26
2022-12-12T14:32:32.498Z,-1.23
2022-12-12T14:34:34.449Z,-1.26
2022-12-12T14:36:36.242Z,-1.26
2022-12-12T14:38:38.048Z,-1.26
2022-12-12T14:40:39.978Z,-1.28
2022-12-12T14:43:16.163Z,-1.3
2022-12-12T14:44:45.298Z,-1.36
2022-12-12T14:46:43.852Z,-1.38
2022-12-12T14:48:44.972Z,-1.49
2022-12-12T14:50:46.931Z,-1.54
2022-12-12T14:52:48.632Z,-1.57
2022-12-12T14:54:50.347Z,-1.6
2022-12-12T14:56:52.864Z,-1.66
2022-12-12T14:58:54.009Z,-1.72
2022-12-12T15:00:56.056Z,-1.79
2022-12-12T15:02:57.257Z,-1.91
2022-12-12T15:05:04.312Z,-2
2022-12-12T15:07:00.772Z,-2
2022-12-12T15:09:02.789Z,-2.07
2022-12-12T15:11:04.576Z,-2.09
2022-12-12T15:13:06.311Z,-2.18
2022-12-12T15:15:07.417Z,-2.25
2022-12-12T15:17:09.402Z,-2.31
2022-12-12T15:19:10.873Z,-2.38
2022-12-12T15:21:12.554Z,-2.52
2022-12-12T15:23:13.922Z,-2.62
2022-12-12T15:25:15.284Z,-2.59
2022-12-12T15:27:16.873Z,-2.62
2022-12-12T15:29:18.979Z,-2.76
2022-12-12T15:31:20.836Z,-2.84
2022-12-12T15:33:22.557Z,-2.92
2022-12-12T15:35:23.947Z,-3
2022-12-12T15:37:25.797Z,-3.13
2022-12-12T15:39:27.242Z,-3.19
2022-12-12T15:41:29.168Z,-3.29
2022-12-12T15:43:30.544Z,-3.35
2022-12-12T15:45:31.657Z,-3.34
2022-12-12T15:47:33.713Z,-3.4
2022-12-12T15:49:35.335Z,-3.43
2022-12-12T15:51:37.103Z,-3.35
2022-12-12T15:53:38.713Z,-3.35
2022-12-12T15:55:40.293Z,-3.4
2022-12-12T15:57:42.062Z,-3.54
2022-12-12T16:01:45.119Z,-3.51
2022-12-12T16:03:46.545Z,-3.5
2022-12-12T16:05:48.486Z,-3.65
2022-12-12T16:07:50.144Z,-3.72
2022-12-12T16:09:51.386Z,-3.93
2022-12-12T16:11:52.979Z,-3.98
2022-12-12T16:13:54.799Z,-3.95
2022-12-12T16:15:56.186Z,-3.93
2022-12-12T16:17:57.782Z,-4.04
2022-12-12T16:19:59.608Z,-4.09
2022-12-12T16:22:01.117Z,-4.17
2022-12-12T16:24:02.549Z,-4.14
2022-12-12T16:26:04.016Z,-4.09
2022-12-12T16:28:05.449Z,-4.01
2022-12-12T16:30:06.614Z,-4.05
2022-12-12T16:32:08.271Z,-4.21
2022-12-12T16:34:10.056Z,-4.39
2022-12-12T16:36:11.828Z,-4.4
